createdAt,value
2023-03-03T00:01:41.946Z,0.00
2023-03-03T00:04:10.174Z,0.00
2023-03-03T00:06:38.365Z,0.10
2023-03-03T00:09:06.726Z,0.00
2023-03-03T00:11:34.896Z,0.00
2023-03-03T00:14:03.275Z,0.10
2023-03-03T00:16:36.632Z,0.10
2023-03-03T00:19:15.324Z,0.10
2023-03-03T00:21:46.185Z,0.00
2023-03-03T00:24:21.247Z,-0.10
2023-03-03T00:26:51.548Z,-0.10
2023-03-03T00:29:32.036Z,-0.10
2023-03-03T00:32:28.088Z,-0.10
2023-03-03T00:35:04.395Z,0.00
2023-03-03T00:37:34.931Z,-0.10
2023-03-03T00:40:25.259Z,-0.20
2023-03-03T00:42:55.555Z,-0.30
2023-03-03T00:45:41.504Z,-0.20
2023-03-03T00:48:24.885Z,-0.30
2023-03-03T00:50:56.103Z,-0.30
2023-03-03T00:53:26.280Z,-0.30
2023-03-03T00:55:55.352Z,-0.30
2023-03-03T00:58:25.687Z,-0.40
2023-03-03T01:00:56.857Z,-0.40
2023-03-03T01:03:26.928Z,-0.30
2023-03-03T01:05:56.760Z,-0.30
2023-03-03T01:08:25.919Z,-0.20
2023-03-03T01:10:57.153Z,-0.20
2023-03-03T01:13:28.314Z,-0.20
2023-03-03T01:15:56.739Z,-0.10
2023-03-03T01:18:25.141Z,-0.10
2023-03-03T01:20:53.560Z,-0.10
2023-03-03T01:23:23.473Z,-0.20
2023-03-03T01:25:51.844Z,-0.20
2023-03-03T01:28:20.185Z,-0.30
2023-03-03T01:30:48.728Z,-0.30
2023-03-03T01:33:17.136Z,-0.30
2023-03-03T01:35:46.151Z,-0.30
2023-03-03T01:38:14.672Z,-0.30
2023-03-03T01:40:44.453Z,-0.30
2023-03-03T01:43:16.276Z,-0.30
2023-03-03T01:46:36.405Z,-0.30
2023-03-03T01:49:08.925Z,-0.30
2023-03-03T01:51:41.314Z,-0.30
2023-03-03T01:54:15.822Z,-0.30
2023-03-03T01:56:45.891Z,-0.30
2023-03-03T01:59:19.894Z,-0.40
2023-03-03T02:01:49.500Z,-0.30
2023-03-03T02:04:19.134Z,-0.30
2023-03-03T02:06:51.910Z,-0.40
2023-03-03T02:09:26.188Z,-0.40
2023-03-03T02:12:00.850Z,-0.30
2023-03-03T02:14:29.056Z,-0.40
2023-03-03T02:16:57.400Z,-0.40
2023-03-03T02:19:34.704Z,-0.40
2023-03-03T02:22:03.868Z,-0.40
2023-03-03T02:24:40.187Z,-0.40
2023-03-03T02:27:10.197Z,-0.40
2023-03-03T02:29:38.552Z,-0.40
2023-03-03T02:32:07.110Z,-0.40
2023-03-03T02:34:47.853Z,-0.50
2023-03-03T02:37:16.446Z,-0.50
2023-03-03T02:39:45.290Z,-0.50
2023-03-03T02:42:19.765Z,-0.60
2023-03-03T02:44:53.759Z,-0.60
2023-03-03T02:47:22.059Z,-0.60
2023-03-03T02:49:50.383Z,-0.60
2023-03-03T02:52:19.193Z,-0.60
2023-03-03T02:54:47.557Z,-0.70
2023-03-03T02:57:17.310Z,-0.70
2023-03-03T02:59:45.648Z,-0.70
2023-03-03T03:02:13.966Z,-0.70
2023-03-03T03:04:42.607Z,-0.70
2023-03-03T03:07:11.900Z,-0.70
2023-03-03T03:09:40.296Z,-0.70
2023-03-03T03:12:08.876Z,-0.70
2023-03-03T03:14:38.967Z,-0.70
2023-03-03T03:17:07.225Z,-0.70
2023-03-03T03:19:35.687Z,-0.70
2023-03-03T03:22:04.028Z,-0.70
2023-03-03T03:24:32.344Z,-0.70
2023-03-03T03:27:00.794Z,-0.80
2023-03-03T03:29:29.224Z,-0.80
2023-03-03T03:31:59.078Z,-0.80
2023-03-03T03:34:27.425Z,-0.80
2023-03-03T03:36:55.880Z,-0.80
2023-03-03T03:39:24.314Z,-0.80
2023-03-03T03:41:52.810Z,-0.80
2023-03-03T03:44:21.099Z,-0.80
2023-03-03T03:46:49.959Z,-0.80
2023-03-03T03:49:20.919Z,-0.80
2023-03-03T03:51:49.474Z,-0.80
2023-03-03T03:54:17.782Z,-0.80
2023-03-03T03:56:46.183Z,-0.80
2023-03-03T03:59:14.583Z,-0.80
2023-03-03T04:01:42.992Z,-0.80
2023-03-03T04:04:12.388Z,-0.80
2023-03-03T04:06:42.282Z,-0.80
2023-03-03T04:09:10.599Z,-0.80
2023-03-03T04:11:39.019Z,-0.80
2023-03-03T04:14:07.539Z,-0.80
2023-03-03T04:16:35.872Z,-0.90
2023-03-03T04:19:04.705Z,-0.90
2023-03-03T04:21:33.152Z,-0.80
2023-03-03T04:24:02.951Z,-0.80
2023-03-03T04:26:32.399Z,-0.80
2023-03-03T04:29:01.761Z,-0.80
2023-03-03T04:31:30.030Z,-0.90
2023-03-03T04:33:58.303Z,-0.90
2023-03-03T04:36:26.902Z,-0.90
2023-03-03T04:38:55.209Z,-1.00
2023-03-03T04:41:25.014Z,-1.00
2023-03-03T04:43:54.284Z,-1.00
2023-03-03T04:46:22.565Z,-1.00
2023-03-03T04:48:50.834Z,-1.00
2023-03-03T04:51:19.056Z,-1.00
2023-03-03T04:53:47.460Z,-1.00
2023-03-03T04:56:15.886Z,-0.90
2023-03-03T04:58:45.771Z,-1.00
2023-03-03T05:01:15.530Z,-1.00
2023-03-03T05:03:44.030Z,-0.50
2023-03-03T05:06:12.244Z,-1.00
2023-03-03T05:08:40.490Z,-1.10
2023-03-03T05:11:08.591Z,-1.10
2023-03-03T05:13:36.655Z,-1.10
2023-03-03T05:16:06.664Z,-1.10
2023-03-03T05:18:34.745Z,-1.10
2023-03-03T05:21:02.838Z,-1.10
2023-03-03T05:23:31.309Z,-1.10
2023-03-03T05:25:59.335Z,-1.10
2023-03-03T05:28:27.452Z,-1.00
2023-03-03T05:30:55.482Z,-1.00
2023-03-03T05:33:24.923Z,-1.20
2023-03-03T05:35:55.698Z,-0.90
2023-03-03T05:38:24.214Z,-0.90
2023-03-03T05:40:52.439Z,-0.90
2023-03-03T05:43:20.611Z,-0.90
2023-03-03T05:45:48.641Z,-0.90
2023-03-03T05:48:16.691Z,-1.00
2023-03-03T05:50:46.183Z,-1.00
2023-03-03T05:53:14.363Z,-1.00
2023-03-03T05:55:42.422Z,-1.00
2023-03-03T05:58:10.532Z,-1.00
2023-03-03T06:00:38.651Z,-0.90
2023-03-03T06:03:06.675Z,-1.00
2023-03-03T06:05:34.785Z,-1.00
2023-03-03T06:08:04.387Z,-0.90
2023-03-03T06:10:32.439Z,-0.90
2023-03-03T06:13:00.918Z,-0.80
2023-03-03T06:15:29.114Z,-0.90
2023-03-03T06:17:57.359Z,-0.80
2023-03-03T06:20:25.474Z,-0.80
2023-03-03T06:22:53.662Z,-0.80
2023-03-03T06:25:23.373Z,-0.80
2023-03-03T06:27:51.560Z,-0.90
2023-03-03T06:30:20.058Z,-0.90
2023-03-03T06:32:48.456Z,-0.90
2023-03-03T06:35:18.339Z,-0.90
2023-03-03T06:37:46.465Z,-0.80
2023-03-03T06:40:15.337Z,-0.80
2023-03-03T06:42:44.969Z,-0.90
2023-03-03T06:45:13.766Z,-0.80
2023-03-03T06:47:42.215Z,-0.80
2023-03-03T06:50:12.655Z,-0.80
2023-03-03T06:52:40.775Z,-0.80
2023-03-03T06:55:14.764Z,-0.80
2023-03-03T06:57:44.385Z,-0.80
2023-03-03T07:00:18.330Z,-0.80
2023-03-03T07:02:46.450Z,-0.80
2023-03-03T07:05:18.122Z,-0.70
2023-03-03T07:07:46.681Z,-0.70
2023-03-03T07:10:23.243Z,-0.70
2023-03-03T07:12:53.037Z,-0.60
2023-03-03T07:15:25.086Z,-0.70
2023-03-03T07:17:58.276Z,-0.60
2023-03-03T07:20:33.607Z,-0.60
2023-03-03T07:23:01.841Z,-0.60
2023-03-03T07:25:33.677Z,-0.60
2023-03-03T07:28:13.486Z,-0.60
2023-03-03T07:30:43.317Z,-0.60
2023-03-03T07:33:25.657Z,-0.60
2023-03-03T07:35:56.626Z,-0.50
2023-03-03T07:38:40.140Z,-0.50
2023-03-03T07:41:15.647Z,-0.50
2023-03-03T07:43:55.077Z,-0.50
2023-03-03T07:46:42.724Z,-0.50
2023-03-03T07:49:22.721Z,-0.40
2023-03-03T07:51:55.080Z,-0.40
2023-03-03T07:54:31.317Z,-0.40
2023-03-03T07:57:03.268Z,-0.40
2023-03-03T07:59:38.144Z,-0.40
2023-03-03T08:02:18.029Z,-0.40
2023-03-03T08:04:50.936Z,-0.40
2023-03-03T08:07:20.869Z,-0.30
2023-03-03T08:09:51.137Z,-0.20
2023-03-03T08:12:41.998Z,-0.20
2023-03-03T08:15:35.215Z,-0.20
2023-03-03T08:18:05.380Z,-0.20
2023-03-03T08:20:53.257Z,-0.20
2023-03-03T08:23:22.808Z,-0.10
2023-03-03T08:25:52.289Z,-0.10
2023-03-03T08:28:21.114Z,0.00
2023-03-03T08:30:52.130Z,0.00
2023-03-03T08:33:21.284Z,0.30
2023-03-03T08:35:49.814Z,0.10
2023-03-03T08:38:19.625Z,0.20
2023-03-03T08:40:47.935Z,0.20
2023-03-03T08:43:17.424Z,0.30
2023-03-03T08:45:47.350Z,0.50
2023-03-03T08:48:17.357Z,0.40
2023-03-03T08:50:46.238Z,0.40
2023-03-03T08:53:15.384Z,0.30
2023-03-03T08:55:43.673Z,0.30
2023-03-03T08:58:11.908Z,0.50
2023-03-03T09:00:40.856Z,0.60
2023-03-03T09:03:09.441Z,0.80
2023-03-03T09:09:26.581Z,0.70
2023-03-03T09:11:59.302Z,0.70
2023-03-03T09:14:30.097Z,0.70
2023-03-03T09:16:58.839Z,0.80
2023-03-03T09:19:30.712Z,0.80
2023-03-03T09:22:13.005Z,1.00
2023-03-03T09:24:44.029Z,1.20
2023-03-03T09:27:20.444Z,1.40
2023-03-03T09:29:48.606Z,1.50
2023-03-03T09:32:34.803Z,1.50
2023-03-03T09:35:37.153Z,1.60
2023-03-03T09:38:21.735Z,1.70
2023-03-03T09:41:05.445Z,1.70
2023-03-03T09:43:42.015Z,1.80
2023-03-03T09:46:18.532Z,2.00
2023-03-03T09:48:59.224Z,2.00
2023-03-03T09:51:53.914Z,2.00
2023-03-03T09:54:44.192Z,2.00
2023-03-03T09:57:17.060Z,2.00
2023-03-03T09:59:58.498Z,2.10
2023-03-03T10:02:35.147Z,2.10
2023-03-03T10:05:35.107Z,2.20
2023-03-03T10:08:18.666Z,2.10
2023-03-03T10:11:02.987Z,2.20
2023-03-03T10:13:43.246Z,2.20
2023-03-03T10:16:23.743Z,2.20
2023-03-03T10:18:57.105Z,2.20
2023-03-03T10:21:28.542Z,3.10
2023-03-03T10:24:01.961Z,2.80
2023-03-03T10:27:05.454Z,2.40
2023-03-03T10:29:44.595Z,2.40
2023-03-03T10:32:31.477Z,2.40
2023-03-03T10:35:20.727Z,2.40
2023-03-03T10:37:57.574Z,2.50
2023-03-03T10:40:32.941Z,2.50
2023-03-03T10:43:29.722Z,2.50
2023-03-03T10:46:23.396Z,2.50
2023-03-03T10:49:14.774Z,2.50
2023-03-03T10:51:56.680Z,2.40
2023-03-03T10:54:41.110Z,2.60
2023-03-03T10:57:17.664Z,2.80
2023-03-03T11:00:00.981Z,2.80
2023-03-03T11:02:39.600Z,2.70
2023-03-03T11:05:31.482Z,2.70
2023-03-03T11:08:05.051Z,2.70
2023-03-03T11:10:48.232Z,2.70
2023-03-03T11:13:25.033Z,2.80
2023-03-03T11:16:14.880Z,2.70
2023-03-03T11:18:59.835Z,2.80
2023-03-03T11:21:34.216Z,2.80
2023-03-03T11:24:12.620Z,2.90
2023-03-03T11:27:01.192Z,3.00
2023-03-03T11:29:45.129Z,2.90
2023-03-03T11:32:24.772Z,2.80
2023-03-03T11:35:06.315Z,2.80
2023-03-03T11:37:44.022Z,2.80
2023-03-03T11:40:18.454Z,2.80
2023-03-03T11:43:01.432Z,2.90
2023-03-03T11:45:35.364Z,2.80
2023-03-03T11:48:13.956Z,2.70
2023-03-03T11:50:53.741Z,3.00
2023-03-03T11:53:43.940Z,3.00
2023-03-03T11:56:24.102Z,3.20
2023-03-03T11:59:04.182Z,3.20
2023-03-03T12:01:37.932Z,3.30
2023-03-03T12:04:11.734Z,3.40
2023-03-03T12:06:53.469Z,3.40
2023-03-03T12:09:34.264Z,3.40
2023-03-03T12:12:08.275Z,3.50
2023-03-03T12:14:58.214Z,3.30
2023-03-03T12:17:50.642Z,3.10
2023-03-03T12:20:26.821Z,3.30
2023-03-03T12:23:09.635Z,3.30
2023-03-03T12:25:41.833Z,3.30
2023-03-03T12:28:17.789Z,3.30
2023-03-03T12:31:18.088Z,3.40
2023-03-03T12:33:58.410Z,3.40
2023-03-03T12:36:51.261Z,3.50
2023-03-03T12:39:35.557Z,3.40
2023-03-03T12:42:12.519Z,3.80
2023-03-03T12:44:45.846Z,3.80
2023-03-03T12:47:22.273Z,3.80
2023-03-03T12:50:08.114Z,3.80
2023-03-03T12:52:45.384Z,3.90
2023-03-03T12:55:22.527Z,3.90
2023-03-03T12:58:00.278Z,3.90
2023-03-03T13:00:38.605Z,3.80
2023-03-03T13:03:15.160Z,3.70
2023-03-03T13:05:54.207Z,3.70
2023-03-03T13:08:33.487Z,3.70
2023-03-03T13:11:15.435Z,3.70
2023-03-03T13:13:50.436Z,3.60
2023-03-03T13:16:38.952Z,3.60
2023-03-03T13:19:13.678Z,3.60
2023-03-03T13:21:49.054Z,3.60
2023-03-03T13:24:23.026Z,3.80
2023-03-03T13:26:58.645Z,3.90
2023-03-03T13:29:28.854Z,4.00
2023-03-03T13:32:00.967Z,4.00
2023-03-03T13:34:40.404Z,4.10
2023-03-03T13:37:16.681Z,4.10
2023-03-03T13:39:57.123Z,4.00
2023-03-03T13:42:33.860Z,4.00
2023-03-03T13:45:08.226Z,3.90
2023-03-03T13:47:42.626Z,3.80
2023-03-03T13:50:21.117Z,3.80
2023-03-03T13:53:04.420Z,4.00
2023-03-03T13:55:37.669Z,4.00
2023-03-03T13:58:21.142Z,4.00
2023-03-03T14:00:58.995Z,4.10
2023-03-03T14:04:07.105Z,4.20
2023-03-03T14:06:37.858Z,4.30
2023-03-03T14:09:28.198Z,4.20
2023-03-03T14:12:03.956Z,4.30
2023-03-03T14:14:47.047Z,4.20
2023-03-03T14:17:26.022Z,4.30
2023-03-03T14:20:03.782Z,4.40
2023-03-03T14:22:43.541Z,4.40
2023-03-03T14:25:13.886Z,4.40
2023-03-03T14:27:55.321Z,4.40
2023-03-03T14:30:43.673Z,4.40
2023-03-03T14:33:21.799Z,4.30
2023-03-03T14:36:06.754Z,4.30
2023-03-03T14:38:46.724Z,4.30
2023-03-03T14:41:20.797Z,4.20
2023-03-03T14:43:59.775Z,4.20
2023-03-03T14:46:47.515Z,4.10
2023-03-03T14:49:29.697Z,4.00
2023-03-03T14:52:04.031Z,4.10
2023-03-03T14:54:39.872Z,4.10
2023-03-03T14:57:14.392Z,4.20
2023-03-03T15:00:00.592Z,4.40
2023-03-03T15:02:42.324Z,4.50
2023-03-03T15:05:20.633Z,4.50
2023-03-03T15:07:54.705Z,4.40
2023-03-03T15:10:35.254Z,4.40
2023-03-03T15:13:32.238Z,4.50
2023-03-03T15:16:10.220Z,4.40
2023-03-03T15:19:01.678Z,4.40
2023-03-03T15:21:32.985Z,4.40
2023-03-03T15:24:07.678Z,4.40
2023-03-03T15:26:45.659Z,4.40
2023-03-03T15:29:18.387Z,4.40
2023-03-03T15:31:53.529Z,4.40
2023-03-03T15:34:39.033Z,4.40
2023-03-03T15:37:19.415Z,4.40
2023-03-03T15:39:56.256Z,4.50
2023-03-03T15:42:35.693Z,4.40
2023-03-03T15:45:16.098Z,4.40
2023-03-03T15:48:04.082Z,4.40
2023-03-03T15:50:45.407Z,4.30
2023-03-03T15:53:27.617Z,4.30
2023-03-03T15:56:13.554Z,4.30
2023-03-03T15:58:59.625Z,4.30
2023-03-03T16:01:31.744Z,4.30
2023-03-03T16:04:02.339Z,4.30
2023-03-03T16:06:40.736Z,4.30
2023-03-03T16:09:21.278Z,4.30
2023-03-03T16:11:53.719Z,4.10
2023-03-03T16:14:45.751Z,4.00
2023-03-03T16:17:25.445Z,4.00
2023-03-03T16:20:04.286Z,3.90
2023-03-03T16:22:50.515Z,3.80
2023-03-03T16:25:35.718Z,3.80
2023-03-03T16:28:09.944Z,3.70
2023-03-03T16:30:47.749Z,3.60
2023-03-03T16:33:22.398Z,3.60
2023-03-03T16:35:59.810Z,3.60
2023-03-03T16:38:37.642Z,3.50
2023-03-03T16:41:12.140Z,3.50
2023-03-03T16:43:51.872Z,3.50
2023-03-03T16:46:33.086Z,3.50
2023-03-03T16:49:09.872Z,3.40
2023-03-03T16:51:48.793Z,3.40
2023-03-03T16:54:27.159Z,3.40
2023-03-03T16:57:10.088Z,3.30
2023-03-03T16:59:49.728Z,3.30
2023-03-03T17:02:44.888Z,3.30
2023-03-03T17:05:26.143Z,3.20
2023-03-03T17:08:06.607Z,3.20
2023-03-03T17:10:44.092Z,3.10
2023-03-03T17:13:46.184Z,3.00
2023-03-03T17:16:22.745Z,3.00
2023-03-03T17:19:06.596Z,2.90
2023-03-03T17:21:45.203Z,2.90
2023-03-03T17:24:24.625Z,2.90
2023-03-03T17:27:11.732Z,2.80
2023-03-03T17:29:56.349Z,2.70
2023-03-03T17:32:49.104Z,2.70
2023-03-03T17:35:28.591Z,2.60
2023-03-03T17:38:06.696Z,2.80
2023-03-03T17:40:56.735Z,2.60
2023-03-03T17:43:33.424Z,2.60
2023-03-03T17:46:05.971Z,2.60
2023-03-03T17:49:04.693Z,2.60
2023-03-03T17:51:57.162Z,2.70
2023-03-03T17:54:50.340Z,2.80
2023-03-03T17:57:32.932Z,2.90
2023-03-03T18:00:23.577Z,3.00
2023-03-03T18:03:18.943Z,3.10
2023-03-03T18:06:25.120Z,3.10
2023-03-03T18:09:18.841Z,3.20
2023-03-03T18:12:01.462Z,3.20
2023-03-03T18:14:58.414Z,3.30
2023-03-03T18:17:41.198Z,3.30
2023-03-03T18:20:45.200Z,3.30
2023-03-03T18:23:34.172Z,3.30
2023-03-03T18:26:04.291Z,3.40
2023-03-03T18:28:46.640Z,3.40
2023-03-03T18:31:25.594Z,3.40
2023-03-03T18:34:08.608Z,3.40
2023-03-03T18:36:54.139Z,3.50
2023-03-03T18:39:41.211Z,3.30
2023-03-03T18:42:30.572Z,3.30
2023-03-03T18:45:11.166Z,3.30
2023-03-03T18:48:01.361Z,3.30
2023-03-03T18:50:36.557Z,3.30
2023-03-03T18:53:17.380Z,3.20
2023-03-03T18:55:48.141Z,3.30
2023-03-03T18:58:38.186Z,3.30
2023-03-03T19:01:37.864Z,3.30
2023-03-03T19:04:25.261Z,3.30
2023-03-03T19:07:26.881Z,3.30
2023-03-03T19:10:01.855Z,3.30
2023-03-03T19:12:51.649Z,3.30
2023-03-03T19:15:45.789Z,3.30
2023-03-03T19:18:20.038Z,3.30
2023-03-03T19:20:54.259Z,3.30
2023-03-03T19:23:28.643Z,3.30
2023-03-03T19:26:32.288Z,3.30
2023-03-03T19:29:08.743Z,3.30
2023-03-03T19:31:45.511Z,3.30
2023-03-03T19:34:20.258Z,3.30
2023-03-03T19:37:08.982Z,3.30
2023-03-03T19:39:52.599Z,3.30
2023-03-03T19:42:33.964Z,3.30
2023-03-03T19:45:28.903Z,3.30
2023-03-03T19:48:08.586Z,3.30
2023-03-03T19:50:46.694Z,3.30
2023-03-03T19:53:26.505Z,3.30
2023-03-03T19:56:18.552Z,3.40
2023-03-03T19:58:57.793Z,3.40
2023-03-03T20:01:35.189Z,3.40
2023-03-03T20:04:32.136Z,3.70
2023-03-03T20:07:09.069Z,3.50
2023-03-03T20:09:45.213Z,3.60
2023-03-03T20:12:39.170Z,3.50
2023-03-03T20:15:15.202Z,3.50
2023-03-03T20:17:55.689Z,3.50
2023-03-03T20:20:41.421Z,3.50
2023-03-03T20:23:18.493Z,3.50
2023-03-03T20:25:50.368Z,3.50
2023-03-03T20:28:38.240Z,3.50
2023-03-03T20:31:12.973Z,3.50
2023-03-03T20:33:53.423Z,3.50
2023-03-03T20:36:31.824Z,3.50
2023-03-03T20:39:08.423Z,3.50
2023-03-03T20:41:53.813Z,3.50
2023-03-03T20:44:36.571Z,3.50
2023-03-03T20:47:11.812Z,3.50
2023-03-03T20:50:05.526Z,3.40
2023-03-03T20:52:43.236Z,3.50
2023-03-03T20:55:20.490Z,3.50
2023-03-03T20:57:54.978Z,3.40
2023-03-03T21:00:33.982Z,3.40
2023-03-03T21:03:12.141Z,3.50
2023-03-03T21:05:56.760Z,3.40
2023-03-03T21:08:42.725Z,3.40
2023-03-03T21:11:11.702Z,3.40
2023-03-03T21:13:41.474Z,3.40
2023-03-03T21:16:17.486Z,3.40
2023-03-03T21:18:58.302Z,3.50
2023-03-03T21:21:27.435Z,3.50
2023-03-03T21:23:55.585Z,3.40
2023-03-03T21:26:46.355Z,3.40
2023-03-03T21:29:22.372Z,3.40
2023-03-03T21:31:54.397Z,3.40
2023-03-03T21:34:26.469Z,3.30
2023-03-03T21:36:56.324Z,3.30
2023-03-03T21:39:27.847Z,3.30
2023-03-03T21:41:58.582Z,3.30
2023-03-03T21:44:35.200Z,3.30
2023-03-03T21:47:06.082Z,3.40
2023-03-03T21:49:34.946Z,3.40
2023-03-03T21:52:03.832Z,3.40
2023-03-03T21:54:32.062Z,3.40
2023-03-03T21:57:00.265Z,3.40
2023-03-03T21:59:28.522Z,3.40
2023-03-03T22:01:56.703Z,3.40
2023-03-03T22:04:26.506Z,3.40
2023-03-03T22:06:54.599Z,3.40
2023-03-03T22:09:22.933Z,3.40
2023-03-03T22:11:51.195Z,3.40
2023-03-03T22:14:19.366Z,3.40
2023-03-03T22:16:47.667Z,3.40
2023-03-03T22:19:15.900Z,3.40
2023-03-03T22:21:46.688Z,3.30
2023-03-03T22:24:15.095Z,3.30
2023-03-03T22:26:43.174Z,3.30
2023-03-03T22:29:11.260Z,3.30
2023-03-03T22:31:39.568Z,3.20
2023-03-03T22:34:07.765Z,3.20
2023-03-03T22:36:35.844Z,3.10
2023-03-03T22:39:05.431Z,3.10
2023-03-03T22:41:33.765Z,3.00
2023-03-03T22:44:02.030Z,3.00
2023-03-03T22:46:30.180Z,3.00
2023-03-03T22:48:58.418Z,2.90
2023-03-03T22:51:26.659Z,2.90
2023-03-03T22:53:54.842Z,2.90
2023-03-03T22:56:24.321Z,2.90
2023-03-03T22:58:52.614Z,2.80
2023-03-03T23:01:20.613Z,2.80
2023-03-03T23:03:50.177Z,2.80
2023-03-03T23:06:18.229Z,2.70
2023-03-03T23:08:46.216Z,2.70
2023-03-03T23:11:14.244Z,2.70
2023-03-03T23:13:43.668Z,2.70
2023-03-03T23:16:11.758Z,2.60
2023-03-03T23:18:39.922Z,2.50
2023-03-03T23:21:07.999Z,2.40
2023-03-03T23:23:36.071Z,2.30
2023-03-03T23:26:04.164Z,2.30
2023-03-03T23:28:32.299Z,2.20
2023-03-03T23:31:01.852Z,2.10
2023-03-03T23:33:29.991Z,2.10
2023-03-03T23:35:58.064Z,2.00
2023-03-03T23:38:26.103Z,1.90
2023-03-03T23:40:54.413Z,1.80
2023-03-03T23:43:22.753Z,1.80
2023-03-03T23:45:51.000Z,1.80
2023-03-03T23:48:21.469Z,1.70
2023-03-03T23:50:50.483Z,1.60
2023-03-03T23:53:19.506Z,1.30
2023-03-03T23:55:47.867Z,1.50
2023-03-03T23:58:16.148Z,1.50
